San Juan Capistrano, CA (92675)

3:09 PM PDT on March 31, 2015 (GMT -0700)
Ortega | | Change Station
CLOSE
Current Station
Personal Weather Station
Location: San Juan Capistrano, CA
Elevation: 185 ft
Nearby Weather Stations

Elev 185 ft 33.50 °N, 117.60 °W | Updated 1 minute ago

Clear
Clear
69.6 °F
Feels Like 69.6 °F
N
7.0
Wind Variable Wind from West
Gusts 8.0 mph

Today
High -- | Low -- °F
--% Chance of Precip.
Yesterday
High -- | Low -- °F
Precip. -- in
6:39 AM 7:10 PM
Waxing Gibbous, 89% visible
Pressure 30.24 in
Visibility 7.0 miles
Clouds Clear
Dew Point 55 °F
Humidity 60%
Rainfall 0.00 in
Snow Depth Not available.
UV 7 out of 12
Pollen 8.90 out of 12
Air Quality Not available.
Flu Activity Not available.
METAR KNXF 312156Z AUTO 19014KT 7SM CLR 19/13 A2999 RMK AO2 SLP240 T01940128

More Conditions Fewer Conditions

Pressure 30.24 in
Visibility 7.0 miles
Clouds Clear
Dew Point 55 °F
Humidity 60%
Rainfall 0.00 in
Snow Depth Not available.
UV 7 out of 12
Pollen 8.90 out of 12
Air Quality Not available.
Flu Activity Not available.
METAR KNXF 312156Z AUTO 19014KT 7SM CLR 19/13 A2999 RMK AO2 SLP240 T01940128

More Conditions Fewer Conditions

10-Day Weather Forecast

Almanac

Astronomy

Mar. 31, 2015 Rise Set
Actual Time
Civil Twilight
Nautical Twilight
Astronomical Twilight
Moon
Length of Visible Light
Length of Day
Tomorrow will be .
, % of the Moon is Illuminated

Today's Extremes

State Highs State Lows

Community

WunderPhotos

Upload Photos

1,809,849 photos uploaded!

WunderBlogs® & News

Nearby

Air Quality

  Air Quality AQ Index Pollutant
Not available.

Snow Depth

Station Depth Elevation

Earthquake Activity

City Distance Mag. Time & Date
Minimum magnitude displayed is 2.5.

Coastal Water Temperatures

Place Temperature

Stations

Nearby Weather Stations

Station Location Temp. Windchill Dew Point Humidity Wind Precip. Elev Updated Type